createdAt,value
2022-10-17T06:27:23.700Z,5.47
2022-10-17T06:30:01.330Z,5.70
2022-10-17T06:32:39.763Z,5.10
2022-10-17T06:35:17.021Z,6.00
2022-10-17T06:37:53.721Z,6.77
2022-10-17T06:40:31.783Z,6.93
2022-10-17T06:43:11.968Z,8.40
2022-10-17T06:46:09.961Z,11.83
2022-10-17T06:48:49.195Z,12.97
2022-10-17T06:51:40.876Z,12.97
2022-10-17T06:54:20.428Z,13.20
2022-10-17T06:57:00.523Z,9.17
2022-10-17T06:59:39.960Z,8.33
2022-10-17T07:02:21.668Z,9.87
2022-10-17T07:04:59.427Z,13.23
2022-10-17T07:07:40.074Z,11.77
2022-10-17T07:10:20.225Z,9.20
2022-10-17T07:12:57.327Z,9.77
2022-10-17T07:15:36.711Z,8.53
2022-10-17T07:18:14.111Z,7.57
2022-10-17T07:20:57.767Z,8.37
2022-10-17T07:23:37.328Z,6.68
2022-10-17T07:26:16.473Z,6.13
2022-10-17T07:28:58.100Z,5.33
2022-10-17T07:31:49.094Z,5.60
2022-10-17T07:34:27.865Z,5.82
2022-10-17T07:37:07.314Z,4.30
2022-10-17T07:39:44.824Z,4.57
2022-10-17T07:42:22.263Z,5.30
2022-10-17T07:45:00.961Z,5.13
2022-10-17T07:47:43.292Z,5.25
2022-10-17T07:50:23.583Z,4.72
2022-10-17T07:53:00.495Z,4.93
2022-10-17T07:55:37.562Z,5.03
2022-10-17T07:58:14.293Z,4.68
2022-10-17T08:00:51.978Z,5.35
2022-10-17T08:03:31.491Z,4.45
2022-10-17T08:06:09.109Z,2.92
2022-10-17T08:08:46.259Z,3.67
2022-10-17T08:11:23.620Z,3.30
2022-10-17T08:14:00.584Z,3.33
2022-10-17T08:16:37.666Z,2.80
2022-10-17T08:19:17.121Z,2.50
2022-10-17T08:21:54.790Z,2.30
2022-10-17T08:24:31.991Z,2.70
2022-10-17T08:27:11.732Z,2.95
2022-10-17T08:29:49.210Z,2.72
2022-10-17T08:32:29.358Z,2.17
2022-10-17T08:35:13.155Z,2.30
2022-10-17T08:37:50.227Z,2.42
2022-10-17T08:40:31.056Z,2.20
2022-10-17T08:43:42.796Z,2.30
2022-10-17T08:46:20.421Z,3.03
2022-10-17T08:48:57.850Z,1.73
2022-10-17T08:51:46.427Z,2.17
2022-10-17T08:54:29.588Z,2.15
2022-10-17T08:57:06.368Z,2.20
2022-10-17T08:59:43.570Z,2.38
2022-10-17T09:02:42.930Z,2.28
2022-10-17T09:05:40.496Z,3.05
2022-10-17T09:08:39.854Z,2.80
2022-10-17T09:11:28.456Z,2.63
2022-10-17T09:14:20.419Z,2.60
2022-10-17T09:17:14.475Z,2.70
2022-10-17T09:20:03.354Z,2.25
2022-10-17T09:22:45.811Z,2.47
2022-10-17T09:25:25.844Z,2.22
2022-10-17T09:28:14.451Z,2.60
2022-10-17T09:30:57.451Z,2.25
2022-10-17T09:33:56.384Z,2.50
2022-10-17T09:36:37.250Z,2.50
2022-10-17T09:39:20.145Z,2.22
2022-10-17T09:42:02.251Z,2.63
2022-10-17T09:44:44.653Z,2.40
2022-10-17T09:47:31.913Z,2.42
2022-10-17T09:50:18.210Z,2.80
2022-10-17T09:52:56.576Z,2.88
2022-10-17T09:55:43.643Z,3.17
2022-10-17T09:58:25.513Z,3.42
2022-10-17T10:01:24.089Z,3.13
2022-10-17T10:04:18.098Z,3.42
2022-10-17T10:07:07.752Z,3.08
2022-10-17T10:09:49.348Z,3.30
2022-10-17T10:12:28.853Z,3.30
2022-10-17T10:15:36.615Z,3.97
2022-10-17T10:18:38.928Z,3.92
2022-10-17T10:21:20.398Z,3.88
2022-10-17T10:24:17.274Z,3.90
2022-10-17T10:26:55.874Z,3.50
2022-10-17T10:29:38.668Z,4.03
2022-10-17T10:32:25.549Z,3.95
2022-10-17T10:35:09.099Z,3.33
2022-10-17T10:37:49.619Z,3.90
2022-10-17T10:40:30.910Z,4.25
2022-10-17T10:43:09.710Z,4.55
2022-10-17T10:45:48.799Z,3.97
2022-10-17T10:48:31.021Z,4.00
2022-10-17T10:51:15.388Z,3.90
2022-10-17T10:53:58.860Z,4.13
2022-10-17T10:56:44.100Z,3.50
2022-10-17T10:59:28.660Z,4.28
2022-10-17T11:02:16.329Z,4.35
2022-10-17T11:05:01.662Z,5.43
2022-10-17T11:07:45.567Z,4.47
2022-10-17T11:10:29.755Z,4.75
2022-10-17T11:13:15.151Z,5.00
2022-10-17T11:15:57.797Z,4.63
2022-10-17T11:18:43.996Z,4.13
2022-10-17T11:21:30.135Z,4.57
2022-10-17T11:24:14.194Z,4.70
2022-10-17T11:26:59.193Z,4.93
2022-10-17T11:29:39.515Z,5.18
2022-10-17T11:32:26.441Z,5.32
2022-10-17T11:35:08.888Z,5.60
2022-10-17T11:37:54.418Z,5.10
2022-10-17T11:40:36.186Z,5.90
2022-10-17T11:43:18.852Z,6.25
2022-10-17T11:48:42.980Z,5.55
2022-10-17T11:54:28.049Z,6.30
2022-10-17T11:57:25.758Z,5.97
2022-10-17T12:00:22.907Z,5.88
2022-10-17T12:03:16.181Z,6.72
2022-10-17T12:06:00.300Z,6.40
2022-10-17T12:08:44.861Z,6.05
2022-10-17T12:11:43.679Z,6.60
2022-10-17T12:14:44.270Z,6.10
2022-10-17T12:17:39.191Z,5.85
2022-10-17T12:20:33.896Z,6.00
2022-10-17T12:23:30.103Z,5.70
2022-10-17T12:26:13.310Z,5.75
2022-10-17T12:29:07.719Z,5.75
2022-10-17T12:31:45.056Z,6.05
2022-10-17T12:34:25.788Z,6.43
2022-10-17T12:37:03.176Z,7.13
2022-10-17T12:39:48.818Z,6.22
2022-10-17T12:42:53.765Z,5.80
2022-10-17T12:45:54.148Z,6.05
2022-10-17T12:49:06.824Z,5.93
2022-10-17T12:52:23.306Z,6.10
2022-10-17T12:55:14.951Z,6.10
2022-10-17T12:58:00.588Z,6.07
2022-10-17T13:01:05.394Z,5.07
2022-10-17T13:03:52.812Z,4.95
2022-10-17T13:06:37.983Z,4.85
2022-10-17T13:09:29.576Z,5.25
2022-10-17T13:12:15.873Z,5.40
2022-10-17T13:14:57.035Z,6.15
2022-10-17T13:17:35.194Z,6.13
2022-10-17T13:20:29.015Z,7.10
2022-10-17T13:23:08.914Z,6.85
2022-10-17T13:25:45.694Z,7.80
2022-10-17T13:28:23.048Z,6.90
2022-10-17T13:30:59.907Z,7.53
2022-10-17T13:33:42.682Z,7.13
2022-10-17T13:36:23.114Z,8.10
2022-10-17T13:39:02.445Z,7.03
2022-10-17T13:41:39.690Z,7.13
2022-10-17T13:44:20.744Z,6.88
2022-10-17T13:46:57.692Z,6.88
2022-10-17T13:49:38.805Z,6.35
2022-10-17T13:52:24.553Z,6.50
2022-10-17T13:55:17.921Z,7.32
2022-10-17T14:00:31.985Z,6.32
2022-10-17T14:03:09.421Z,5.80
2022-10-17T14:06:19.723Z,5.32
2022-10-17T14:09:05.924Z,5.22
2022-10-17T14:11:45.705Z,5.72
2022-10-17T14:14:28.216Z,5.68
2022-10-17T14:19:46.006Z,5.38
2022-10-17T14:22:32.408Z,5.30
2022-10-17T14:25:36.645Z,5.53
2022-10-17T14:28:20.576Z,5.03
2022-10-17T14:31:12.235Z,6.50
2022-10-17T14:33:51.792Z,5.97
2022-10-17T14:36:39.203Z,6.10
2022-10-17T14:39:25.751Z,7.00
2022-10-17T14:42:06.307Z,6.60
2022-10-17T14:44:43.534Z,6.70
2022-10-17T14:47:44.022Z,7.32
2022-10-17T14:50:30.635Z,7.97
2022-10-17T14:53:22.785Z,7.05
2022-10-17T14:56:02.559Z,7.55
2022-10-17T14:58:42.486Z,7.25
2022-10-17T15:01:20.213Z,7.50
2022-10-17T15:03:56.982Z,7.90
2022-10-17T15:06:38.045Z,7.88
2022-10-17T15:09:15.837Z,7.70
2022-10-17T15:11:53.596Z,7.53
2022-10-17T15:14:33.195Z,7.95
2022-10-17T15:17:18.816Z,8.27
2022-10-17T15:19:55.764Z,7.95
2022-10-17T15:22:35.422Z,8.13
2022-10-17T15:25:13.087Z,8.93
2022-10-17T15:27:50.255Z,8.15
2022-10-17T15:30:32.848Z,8.88
2022-10-17T15:35:46.508Z,8.98
2022-10-17T15:38:23.644Z,8.65
2022-10-17T15:41:00.474Z,8.93
2022-10-17T15:43:37.516Z,8.43
2022-10-17T15:46:20.355Z,8.88
2022-10-17T15:48:58.885Z,8.48
2022-10-17T15:51:35.614Z,10.07
2022-10-17T15:57:09.606Z,9.77
2022-10-17T15:59:47.266Z,9.52
2022-10-17T16:02:27.508Z,9.60
2022-10-17T16:05:05.095Z,10.43
2022-10-17T16:07:41.913Z,10.68
2022-10-17T16:10:20.359Z,10.32
2022-10-17T16:12:57.995Z,10.38
2022-10-17T16:15:35.121Z,9.68
2022-10-17T16:18:14.512Z,10.93
2022-10-17T16:20:51.816Z,10.18
2022-10-17T16:23:29.083Z,10.57
2022-10-17T16:26:06.226Z,12.00
2022-10-17T16:28:46.101Z,11.20
2022-10-17T16:31:29.586Z,12.27
2022-10-17T16:34:09.614Z,12.23
2022-10-17T16:36:47.024Z,12.88
2022-10-17T16:39:23.799Z,12.93
2022-10-17T16:42:00.904Z,12.38
2022-10-17T16:44:37.915Z,14.13
2022-10-17T16:47:15.435Z,14.18
2022-10-17T16:49:55.206Z,14.73
2022-10-17T16:52:33.873Z,14.30
2022-10-17T16:55:13.342Z,14.45
2022-10-17T16:57:51.754Z,15.57
2022-10-17T17:00:29.609Z,15.35
2022-10-17T17:03:08.144Z,15.65
2022-10-17T17:05:53.610Z,15.73
2022-10-17T17:08:33.266Z,15.27
2022-10-17T17:11:12.137Z,16.65
2022-10-17T17:13:50.154Z,16.25
2022-10-17T17:16:30.376Z,16.10
2022-10-17T17:19:12.556Z,16.58
2022-10-17T17:21:53.385Z,16.83
2022-10-17T17:24:32.026Z,17.85
2022-10-17T17:27:12.821Z,16.85
2022-10-17T17:29:52.666Z,17.48
2022-10-17T17:32:30.276Z,17.83
2022-10-17T17:35:10.176Z,18.80
2022-10-17T17:37:50.274Z,19.35
2022-10-17T17:40:27.844Z,18.10
2022-10-17T17:43:05.324Z,18.75
2022-10-17T17:45:44.705Z,18.17
2022-10-17T17:48:21.821Z,19.42
2022-10-17T17:51:00.394Z,19.27
2022-10-17T17:53:41.113Z,17.80
2022-10-17T17:56:22.213Z,19.50
2022-10-17T17:59:02.711Z,18.77
2022-10-17T18:01:40.800Z,17.85
2022-10-17T18:04:18.003Z,17.88
2022-10-17T18:06:55.286Z,16.95
2022-10-17T18:09:35.127Z,17.70
2022-10-17T18:12:12.236Z,17.02
2022-10-17T18:14:49.727Z,17.75
2022-10-17T18:17:33.246Z,17.40
2022-10-17T18:20:11.557Z,16.48
2022-10-17T18:22:49.615Z,16.00
2022-10-17T18:25:29.746Z,16.73
2022-10-17T18:28:08.934Z,16.88
2022-10-17T18:30:46.740Z,16.50
2022-10-17T18:33:25.954Z,17.50
2022-10-17T18:36:08.255Z,16.52
2022-10-17T18:38:46.983Z,16.63
2022-10-17T18:41:29.899Z,15.65
2022-10-17T18:44:09.918Z,16.65
2022-10-17T18:46:48.078Z,15.45
2022-10-17T18:49:27.976Z,14.85
2022-10-17T18:52:07.910Z,15.55
2022-10-17T18:54:46.146Z,14.98
2022-10-17T18:57:26.657Z,14.07
2022-10-17T19:00:04.730Z,15.68
2022-10-17T19:02:42.214Z,15.02
2022-10-17T19:05:20.186Z,15.25
2022-10-17T19:07:58.844Z,14.18
2022-10-17T19:10:37.983Z,13.77
2022-10-17T19:13:21.475Z,12.20
2022-10-17T19:15:59.990Z,11.82
2022-10-17T19:18:37.872Z,11.35
2022-10-17T19:21:21.525Z,12.60
2022-10-17T19:24:02.941Z,11.73
2022-10-17T19:26:43.814Z,12.65
2022-10-17T19:29:27.623Z,12.80
2022-10-17T19:32:14.081Z,12.13
2022-10-17T19:34:54.787Z,12.23
2022-10-17T19:37:33.280Z,11.95
2022-10-17T19:40:16.555Z,12.25
2022-10-17T19:42:55.806Z,12.15
